Terminal Aerodrome Forecast
Issued by NWS Wilmington, OH

Current Version | Previous Version | Graphics & Text | Print | Product List | Glossary On
Versions: 1 2 3 4 5 6 7 8 9 10 11 12 13 14 15 16 17 18
000
FTUS41 KILN 142343
TAFDAY
TAF
KDAY 142343Z 1500/1524 13006KT P6SM SCT250
     FM151000 15007KT P6SM BKN200
     FM151500 17010G20KT P6SM VCSH OVC080
     FM151800 19014G24KT 3SM -SHRA BR OVC015
     FM152100 21014G24KT 5SM -SHRA BR OVC006
     FM152300 22010G18KT P6SM OVC006=

USA.gov is the U.S. government's official web portal to all federal, state and local government web resources and services.